createdAt,value
2023-03-05T00:00:17.248Z,21.75
2023-03-05T00:02:18.735Z,33.35
2023-03-05T00:04:20.365Z,25.00
2023-03-05T00:06:24.482Z,30.35
2023-03-05T00:08:25.938Z,19.40
2023-03-05T00:10:27.513Z,14.75
2023-03-05T00:12:29.377Z,11.60
2023-03-05T00:14:30.821Z,10.32
2023-03-05T00:16:33.002Z,10.07
2023-03-05T00:18:34.915Z,9.70
2023-03-05T00:20:36.322Z,9.73
2023-03-05T00:22:38.037Z,9.90
2023-03-05T00:24:39.512Z,9.70
2023-03-05T00:26:41.195Z,12.63
2023-03-05T00:28:42.719Z,12.57
2023-03-05T00:30:44.129Z,12.55
2023-03-05T00:32:45.541Z,11.40
2023-03-05T00:34:47.207Z,10.18
2023-03-05T00:36:51.008Z,11.50
2023-03-05T00:38:52.791Z,10.07
2023-03-05T00:40:54.302Z,12.88
2023-03-05T00:42:55.884Z,18.75
2023-03-05T00:44:57.311Z,25.48
2023-03-05T00:46:58.760Z,32.13
2023-03-05T00:49:00.326Z,27.50
2023-03-05T00:51:01.937Z,22.35
2023-03-05T00:53:03.324Z,32.17
2023-03-05T00:55:05.679Z,26.10
2023-03-05T00:57:07.105Z,22.95
2023-03-05T00:59:09.012Z,21.88
2023-03-05T01:01:11.075Z,21.00
2023-03-05T01:03:12.577Z,17.63
2023-03-05T01:05:14.980Z,18.48
2023-03-05T01:07:16.466Z,15.95
2023-03-05T01:09:17.893Z,12.43
2023-03-05T01:11:19.325Z,10.45
2023-03-05T01:13:21.027Z,12.70
2023-03-05T01:15:23.840Z,12.07
2023-03-05T01:17:26.541Z,11.43
2023-03-05T01:19:28.149Z,11.30
2023-03-05T01:21:29.742Z,10.77
2023-03-05T01:23:31.230Z,10.02
2023-03-05T01:25:32.695Z,12.27
2023-03-05T01:27:34.246Z,13.10
2023-03-05T01:29:36.875Z,11.82
2023-03-05T01:31:38.522Z,12.83
2023-03-05T01:33:40.024Z,11.60
2023-03-05T01:35:41.560Z,11.95
2023-03-05T01:37:43.065Z,10.98
2023-03-05T01:39:44.579Z,10.95
2023-03-05T01:41:46.209Z,12.80
2023-03-05T01:43:48.461Z,9.35
2023-03-05T01:46:23.797Z,11.25
2023-03-05T01:48:25.881Z,10.45
2023-03-05T01:50:27.833Z,9.93
2023-03-05T01:52:32.820Z,9.95
2023-03-05T01:54:56.923Z,10.55
2023-03-05T01:57:01.809Z,10.27
2023-03-05T01:59:03.709Z,12.48
2023-03-05T02:01:06.013Z,11.10
2023-03-05T02:03:10.602Z,18.63
2023-03-05T02:05:19.611Z,16.50
2023-03-05T02:07:21.738Z,14.68
2023-03-05T02:09:23.232Z,12.27
2023-03-05T02:11:24.662Z,13.10
2023-03-05T02:13:29.767Z,11.02
2023-03-05T02:15:33.174Z,10.23
2023-03-05T02:17:34.580Z,11.80
2023-03-05T02:19:52.138Z,12.32
2023-03-05T02:21:53.878Z,12.85
2023-03-05T02:23:55.425Z,11.10
2023-03-05T02:25:57.129Z,12.27
2023-03-05T02:28:08.024Z,14.80
2023-03-05T02:30:10.339Z,13.85
2023-03-05T02:32:13.032Z,15.52
2023-03-05T02:34:15.166Z,16.40
2023-03-05T02:36:17.931Z,15.32
2023-03-05T02:38:20.916Z,16.70
2023-03-05T02:40:22.453Z,14.90
2023-03-05T02:42:23.885Z,17.52
2023-03-05T02:44:25.306Z,17.48
2023-03-05T02:46:26.833Z,19.25
2023-03-05T02:48:28.280Z,17.20
2023-03-05T02:50:31.333Z,19.33
2023-03-05T02:52:33.092Z,17.00
2023-03-05T02:54:34.505Z,17.05
2023-03-05T02:56:36.007Z,18.80
2023-03-05T02:58:37.409Z,16.40
2023-03-05T03:00:38.848Z,15.98
2023-03-05T03:02:40.363Z,12.90
2023-03-05T03:04:41.871Z,12.38
2023-03-05T03:06:43.257Z,14.75
2023-03-05T03:08:44.650Z,11.02
2023-03-05T03:10:46.155Z,13.20
2023-03-05T03:12:47.581Z,11.57
2023-03-05T03:14:48.964Z,10.43
2023-03-05T03:16:50.504Z,13.20
2023-03-05T03:18:51.933Z,11.48
2023-03-05T03:20:53.389Z,11.18
2023-03-05T03:22:54.928Z,10.52
2023-03-05T03:24:56.373Z,11.73
2023-03-05T03:26:57.832Z,11.48
2023-03-05T03:28:59.441Z,11.00
2023-03-05T03:31:00.905Z,10.02
2023-03-05T03:33:02.493Z,10.07
2023-03-05T03:35:04.211Z,13.85
2023-03-05T03:37:06.194Z,13.20
2023-03-05T03:39:07.797Z,20.70
2023-03-05T03:41:09.702Z,25.95
2023-03-05T03:43:11.277Z,40.22
2023-03-05T03:45:13.550Z,41.60
2023-03-05T03:47:15.273Z,45.25
2023-03-05T03:49:16.650Z,38.67
2023-03-05T03:51:18.283Z,30.48
2023-03-05T03:53:19.755Z,21.40
2023-03-05T03:55:21.153Z,12.40
2023-03-05T03:57:22.612Z,16.40
2023-03-05T03:59:24.091Z,15.05
2023-03-05T04:01:25.519Z,12.05
2023-03-05T04:03:27.459Z,12.82
2023-03-05T04:05:28.873Z,10.50
2023-03-05T04:07:30.400Z,9.20
2023-03-05T04:09:32.025Z,11.52
2023-03-05T04:11:34.222Z,11.93
2023-03-05T04:13:35.712Z,16.17
2023-03-05T04:15:37.206Z,15.95
2023-03-05T04:17:38.652Z,12.73
2023-03-05T04:19:40.574Z,13.93
2023-03-05T04:21:42.267Z,13.68
2023-03-05T04:23:43.947Z,14.25
2023-03-05T04:25:45.373Z,17.45
2023-03-05T04:27:46.955Z,13.70
2023-03-05T04:29:48.493Z,20.13
2023-03-05T04:31:49.903Z,18.40
2023-03-05T04:33:51.403Z,17.38
2023-03-05T04:35:53.209Z,12.30
2023-03-05T04:37:54.753Z,11.70
2023-03-05T04:39:56.706Z,11.65
2023-03-05T04:41:58.172Z,10.82
2023-03-05T04:43:59.560Z,13.20
2023-03-05T04:46:01.084Z,13.70
2023-03-05T04:48:02.547Z,13.15
2023-03-05T04:50:05.761Z,10.35
2023-03-05T04:52:07.505Z,9.95
2023-03-05T04:54:09.061Z,10.75
2023-03-05T04:56:10.465Z,13.32
2023-03-05T04:58:12.094Z,14.23
2023-03-05T05:00:16.406Z,11.75
2023-03-05T05:02:17.832Z,13.88
2023-03-05T05:04:19.345Z,13.48
2023-03-05T05:06:20.744Z,24.75
2023-03-05T05:08:22.498Z,23.58
2023-03-05T05:10:25.865Z,18.52
2023-03-05T05:12:31.126Z,24.73
2023-03-05T05:14:34.396Z,15.70
2023-03-05T05:16:35.884Z,14.57
2023-03-05T05:18:37.426Z,16.20
2023-03-05T05:20:39.519Z,13.05
2023-03-05T05:22:41.606Z,14.40
2023-03-05T05:24:43.079Z,14.30
2023-03-05T05:26:44.480Z,12.95
2023-03-05T05:28:46.006Z,11.85
2023-03-05T05:30:47.385Z,14.93
2023-03-05T05:32:48.806Z,13.68
2023-03-05T05:34:59.745Z,13.00
2023-03-05T05:37:01.126Z,11.57
2023-03-05T05:39:02.633Z,10.88
2023-03-05T05:41:10.690Z,13.82
2023-03-05T05:43:12.085Z,16.48
2023-03-05T05:45:13.549Z,13.45
2023-03-05T05:47:16.535Z,16.75
2023-03-05T05:49:18.196Z,14.85
2023-03-05T05:51:22.249Z,18.30
2023-03-05T05:53:23.930Z,18.63
2023-03-05T05:55:25.312Z,18.23
2023-03-05T05:57:26.720Z,18.45
2023-03-05T05:59:28.198Z,11.73
2023-03-05T06:01:32.912Z,13.50
2023-03-05T06:03:34.371Z,11.07
2023-03-05T06:05:36.040Z,18.02
2023-03-05T06:07:37.453Z,11.88
2023-03-05T06:09:38.896Z,12.30
2023-03-05T06:11:40.644Z,12.48
2023-03-05T06:13:42.434Z,12.02
2023-03-05T06:15:43.828Z,10.98
2023-03-05T06:17:45.978Z,12.43
2023-03-05T06:19:47.376Z,12.10
2023-03-05T06:21:48.782Z,12.68
2023-03-05T06:23:50.695Z,12.35
2023-03-05T06:25:52.568Z,11.95
2023-03-05T06:27:54.032Z,11.52
2023-03-05T06:29:55.678Z,12.43
2023-03-05T06:31:57.346Z,11.88
2023-03-05T06:34:00.787Z,12.15
2023-03-05T06:36:07.108Z,13.77
2023-03-05T06:38:09.304Z,12.80
2023-03-05T06:40:11.478Z,12.02
2023-03-05T06:42:13.253Z,12.40
2023-03-05T06:44:14.663Z,12.90
2023-03-05T06:46:20.438Z,12.70
2023-03-05T06:48:22.194Z,11.85
2023-03-05T06:50:23.635Z,11.82
2023-03-05T06:52:25.045Z,11.73
2023-03-05T06:54:26.647Z,12.73
2023-03-05T06:56:28.100Z,13.43
2023-03-05T06:58:29.589Z,12.13
2023-03-05T07:00:31.585Z,13.30
2023-03-05T07:02:33.017Z,11.73
2023-03-05T07:04:34.468Z,12.43
2023-03-05T07:06:37.316Z,12.00
2023-03-05T07:08:39.240Z,11.93
2023-03-05T07:10:42.327Z,12.52
2023-03-05T07:12:43.965Z,11.40
2023-03-05T07:14:45.396Z,22.48
2023-03-05T07:16:46.845Z,21.67
2023-03-05T07:18:48.897Z,54.65
2023-03-05T07:20:50.331Z,20.90
2023-03-05T07:22:51.732Z,19.70
2023-03-05T07:24:53.529Z,50.63
2023-03-05T07:26:55.060Z,140.60
2023-03-05T07:28:56.934Z,44.95
2023-03-05T07:31:00.788Z,154.30
2023-03-05T07:33:02.202Z,162.50
2023-03-05T07:35:03.944Z,32.70
2023-03-05T07:37:05.540Z,31.83
2023-03-05T07:39:06.955Z,134.93
2023-03-05T07:41:11.969Z,69.07
2023-03-05T07:43:13.451Z,56.65
2023-03-05T07:45:14.857Z,19.65
2023-03-05T07:47:16.365Z,80.57
2023-03-05T07:49:17.863Z,55.63
2023-03-05T07:51:19.468Z,15.43
2023-03-05T07:53:20.872Z,15.43
2023-03-05T07:55:22.475Z,13.18
2023-03-05T07:57:23.902Z,12.18
2023-03-05T07:59:25.301Z,12.75
2023-03-05T08:01:28.738Z,12.07
2023-03-05T08:03:30.247Z,11.18
2023-03-05T08:05:31.682Z,104.25
2023-03-05T08:07:33.099Z,161.32
2023-03-05T08:09:34.512Z,39.20
2023-03-05T08:11:35.902Z,11.27
2023-03-05T08:13:38.208Z,14.25
2023-03-05T08:15:39.703Z,113.32
2023-03-05T08:17:41.143Z,39.20
2023-03-05T08:19:42.991Z,70.45
2023-03-05T08:21:45.865Z,27.33
2023-03-05T08:23:47.630Z,13.07
2023-03-05T08:25:49.190Z,14.57
2023-03-05T08:27:55.569Z,10.05
2023-03-05T08:29:57.052Z,9.63
2023-03-05T08:31:58.604Z,12.52
2023-03-05T08:34:01.667Z,14.82
2023-03-05T08:36:03.260Z,7.68
2023-03-05T08:38:05.121Z,8.38
2023-03-05T08:40:07.091Z,8.25
2023-03-05T08:42:09.078Z,7.40
2023-03-05T08:44:10.676Z,7.45
2023-03-05T08:46:13.370Z,7.43
2023-03-05T08:48:15.196Z,7.37
2023-03-05T08:50:16.905Z,7.50
2023-03-05T08:52:18.320Z,29.50
2023-03-05T08:54:19.722Z,8.48
2023-03-05T08:56:21.451Z,7.93
2023-03-05T08:58:23.182Z,8.30
2023-03-05T09:00:24.619Z,9.20
2023-03-05T09:02:26.264Z,8.82
2023-03-05T09:04:27.672Z,8.80
2023-03-05T09:06:29.179Z,13.65
2023-03-05T09:08:31.186Z,7.97
2023-03-05T09:10:32.671Z,7.45
2023-03-05T09:12:34.159Z,7.60
2023-03-05T09:14:35.773Z,8.10
2023-03-05T09:16:37.266Z,6.80
2023-03-05T09:18:38.947Z,7.75
2023-03-05T09:20:40.652Z,8.80
2023-03-05T09:22:42.094Z,6.80
2023-03-05T09:24:43.526Z,7.15
2023-03-05T09:26:45.107Z,12.48
2023-03-05T09:28:47.755Z,8.43
2023-03-05T09:30:49.163Z,12.65
2023-03-05T09:32:50.951Z,22.40
2023-03-05T09:34:52.424Z,16.65
2023-03-05T09:36:53.834Z,12.93
2023-03-05T09:38:55.780Z,40.63
2023-03-05T09:41:16.353Z,28.67
2023-03-05T09:43:46.367Z,11.70
2023-03-05T09:46:02.286Z,8.02
2023-03-05T09:48:19.869Z,13.68
2023-03-05T09:50:47.739Z,5.80
2023-03-05T09:52:56.413Z,8.80
2023-03-05T09:54:58.021Z,13.02
2023-03-05T09:57:04.101Z,6.80
2023-03-05T09:59:18.879Z,6.05
2023-03-05T10:01:29.272Z,4.88
2023-03-05T10:03:42.938Z,6.50
2023-03-05T10:06:14.011Z,7.78
2023-03-05T10:08:21.043Z,5.80
2023-03-05T10:10:40.263Z,4.85
2023-03-05T10:12:57.483Z,4.90
2023-03-05T10:14:59.145Z,10.15
2023-03-05T10:17:34.856Z,6.05
2023-03-05T10:19:45.812Z,5.47
2023-03-05T10:21:56.473Z,5.35
2023-03-05T10:24:27.140Z,5.10
2023-03-05T10:26:40.581Z,4.57
2023-03-05T10:29:27.126Z,3.80
2023-03-05T10:31:41.455Z,3.78
2023-03-05T10:33:46.623Z,4.13
2023-03-05T10:36:06.962Z,4.18
2023-03-05T10:38:25.982Z,3.97
2023-03-05T10:40:40.515Z,4.00
2023-03-05T10:42:58.580Z,4.63
2023-03-05T10:45:01.961Z,5.03
2023-03-05T10:47:11.319Z,4.82
2023-03-05T10:49:16.802Z,5.22
2023-03-05T10:51:48.438Z,4.28
2023-03-05T10:54:01.976Z,7.45
2023-03-05T10:56:06.028Z,3.80
2023-03-05T10:58:13.410Z,4.35
2023-03-05T11:00:18.220Z,3.78
2023-03-05T11:02:21.345Z,4.40
2023-03-05T11:04:28.592Z,4.90
2023-03-05T11:06:32.620Z,4.20
2023-03-05T11:08:35.836Z,4.65
2023-03-05T11:10:37.399Z,3.40
2023-03-05T11:12:39.119Z,3.25
2023-03-05T11:14:44.282Z,4.18
2023-03-05T11:16:48.138Z,4.20
2023-03-05T11:18:50.117Z,4.03
2023-03-05T11:20:52.591Z,6.78
2023-03-05T11:23:09.358Z,4.45
2023-03-05T11:25:10.717Z,4.65
2023-03-05T11:27:50.650Z,4.47
2023-03-05T11:29:53.160Z,11.98
2023-03-05T11:31:54.868Z,31.70
2023-03-05T11:34:02.850Z,12.80
2023-03-05T11:36:12.957Z,13.90
2023-03-05T11:38:26.986Z,8.52
2023-03-05T11:42:32.060Z,25.45
2023-03-05T11:44:45.295Z,14.90
2023-03-05T11:46:54.357Z,13.15
2023-03-05T11:48:56.410Z,11.75
2023-03-05T11:51:00.170Z,11.15
2023-03-05T11:53:13.796Z,11.80
2023-03-05T11:55:18.287Z,10.07
2023-03-05T11:57:23.872Z,15.43
2023-03-05T11:59:34.348Z,21.48
2023-03-05T12:01:43.840Z,23.85
2023-03-05T12:03:45.907Z,14.50
2023-03-05T12:05:58.672Z,9.73
2023-03-05T12:08:02.411Z,10.63
2023-03-05T12:10:04.311Z,8.73
2023-03-05T12:12:24.350Z,9.23
2023-03-05T12:14:35.734Z,7.35
2023-03-05T12:16:50.825Z,8.25
2023-03-05T12:19:16.316Z,8.65
2023-03-05T12:21:34.668Z,13.25
2023-03-05T12:23:54.830Z,9.23
2023-03-05T12:25:58.813Z,12.80
2023-03-05T12:28:00.904Z,11.02
2023-03-05T12:30:03.402Z,10.05
2023-03-05T12:32:25.751Z,8.50
2023-03-05T12:34:46.272Z,8.00
2023-03-05T12:36:47.654Z,14.00
2023-03-05T12:38:56.825Z,9.27
2023-03-05T12:41:23.256Z,9.15
2023-03-05T12:43:33.044Z,9.95
2023-03-05T12:45:39.837Z,8.30
2023-03-05T12:47:56.618Z,8.25
2023-03-05T12:49:58.192Z,8.02
2023-03-05T12:51:59.644Z,8.68
2023-03-05T12:54:26.097Z,7.70
2023-03-05T12:56:30.622Z,10.32
2023-03-05T12:58:46.815Z,9.02
2023-03-05T13:01:04.444Z,10.52
2023-03-05T13:03:11.753Z,9.68
2023-03-05T13:05:48.451Z,8.80
2023-03-05T13:07:50.717Z,9.82
2023-03-05T13:09:53.958Z,10.00
2023-03-05T13:11:56.197Z,9.60
2023-03-05T13:13:58.424Z,9.15
2023-03-05T13:16:01.084Z,24.95
2023-03-05T13:18:04.157Z,15.83
2023-03-05T13:20:28.959Z,17.15
2023-03-05T13:22:30.426Z,19.05
2023-03-05T13:24:31.926Z,14.18
2023-03-05T13:26:37.967Z,21.48
2023-03-05T13:28:39.432Z,24.88
2023-03-05T13:30:56.355Z,14.40
2023-03-05T13:33:01.519Z,10.50
2023-03-05T13:35:03.039Z,13.60
2023-03-05T13:37:17.424Z,14.60
2023-03-05T13:39:22.868Z,16.40
2023-03-05T13:41:26.692Z,13.45
2023-03-05T13:43:28.092Z,9.95
2023-03-05T13:45:31.807Z,8.82
2023-03-05T13:47:35.640Z,9.65
2023-03-05T13:49:37.184Z,8.75
2023-03-05T13:51:56.278Z,8.40
2023-03-05T13:53:57.805Z,9.80
2023-03-05T13:56:05.863Z,9.43
2023-03-05T13:58:43.957Z,11.80
2023-03-05T14:00:45.614Z,17.00
2023-03-05T14:02:47.040Z,10.43
2023-03-05T14:04:48.779Z,14.05
2023-03-05T14:06:56.201Z,16.10
2023-03-05T14:09:17.799Z,13.13
2023-03-05T14:11:20.188Z,11.05
2023-03-05T14:13:24.194Z,13.18
2023-03-05T14:15:31.543Z,10.93
2023-03-05T14:17:51.362Z,9.73
2023-03-05T14:20:13.393Z,13.18
2023-03-05T14:22:35.472Z,12.10
2023-03-05T14:24:37.513Z,9.35
2023-03-05T14:26:50.655Z,8.48
2023-03-05T14:29:11.523Z,10.57
2023-03-05T14:31:17.073Z,13.55
2023-03-05T14:33:23.808Z,16.00
2023-03-05T14:35:27.801Z,14.55
2023-03-05T14:37:42.374Z,12.32
2023-03-05T14:39:51.933Z,8.77
2023-03-05T14:41:53.376Z,8.70
2023-03-05T14:43:54.840Z,8.98
2023-03-05T14:45:56.356Z,8.98
2023-03-05T14:48:00.400Z,8.75
2023-03-05T14:50:02.077Z,9.50
2023-03-05T14:52:03.630Z,18.20
2023-03-05T14:54:05.480Z,9.50
2023-03-05T14:56:18.494Z,10.52
2023-03-05T14:58:22.185Z,11.57
2023-03-05T15:02:27.380Z,10.02
2023-03-05T15:04:28.889Z,11.90
2023-03-05T15:06:34.051Z,9.80
2023-03-05T15:08:35.751Z,10.27
2023-03-05T15:10:37.660Z,9.60
2023-03-05T15:12:39.060Z,8.60
2023-03-05T15:14:40.595Z,9.25
2023-03-05T15:16:44.101Z,10.05
2023-03-05T15:18:45.738Z,8.27
2023-03-05T15:20:48.531Z,8.18
2023-03-05T15:22:50.235Z,10.52
2023-03-05T15:24:51.634Z,7.82
2023-03-05T15:26:53.255Z,7.40
2023-03-05T15:28:54.742Z,11.38
2023-03-05T15:30:58.258Z,7.85
2023-03-05T15:33:05.077Z,11.13
2023-03-05T15:35:06.727Z,8.07
2023-03-05T15:37:08.136Z,14.10
2023-03-05T15:39:09.636Z,8.15
2023-03-05T15:41:11.177Z,9.73
2023-03-05T15:43:13.275Z,8.30
2023-03-05T15:45:15.374Z,11.57
2023-03-05T15:47:16.855Z,12.30
2023-03-05T15:49:19.251Z,9.57
2023-03-05T15:51:20.926Z,11.63
2023-03-05T15:53:22.705Z,11.65
2023-03-05T15:55:24.232Z,9.30
2023-03-05T15:57:26.479Z,8.68
2023-03-05T15:59:28.031Z,8.88
2023-03-05T16:01:29.519Z,7.45
2023-03-05T16:03:31.094Z,18.58
2023-03-05T16:05:35.282Z,9.63
2023-03-05T16:07:40.726Z,8.80
2023-03-05T16:09:46.252Z,14.05
2023-03-05T16:11:48.744Z,9.27
2023-03-05T16:13:50.326Z,11.35
2023-03-05T16:15:52.002Z,9.20
2023-03-05T16:17:56.138Z,14.18
2023-03-05T16:19:57.554Z,13.25
2023-03-05T16:21:59.061Z,10.65
2023-03-05T16:24:00.609Z,16.95
2023-03-05T16:26:02.175Z,13.82
2023-03-05T16:28:03.623Z,19.13
2023-03-05T16:30:06.141Z,25.02
2023-03-05T16:32:07.684Z,16.25
2023-03-05T16:34:09.602Z,16.20
2023-03-05T16:36:11.059Z,20.42
2023-03-05T16:38:12.455Z,16.60
2023-03-05T16:40:14.142Z,17.58
2023-03-05T16:42:16.409Z,17.55
2023-03-05T16:44:17.859Z,15.68
2023-03-05T16:46:20.206Z,16.90
2023-03-05T16:48:22.263Z,22.00
2023-03-05T16:50:24.188Z,34.97
2023-03-05T16:52:25.711Z,39.55
2023-03-05T16:54:27.511Z,31.90
2023-03-05T16:56:28.960Z,26.08
2023-03-05T16:58:31.690Z,25.52
2023-03-05T17:00:33.317Z,26.33
2023-03-05T17:02:35.149Z,25.98
2023-03-05T17:04:37.103Z,21.23
2023-03-05T17:06:38.577Z,20.30
2023-03-05T17:08:41.654Z,19.23
2023-03-05T17:10:43.558Z,15.23
2023-03-05T17:12:45.060Z,16.70
2023-03-05T17:14:46.462Z,16.33
2023-03-05T17:16:48.183Z,16.38
2023-03-05T17:18:50.029Z,15.95
2023-03-05T17:20:52.056Z,14.85
2023-03-05T17:22:53.887Z,14.38
2023-03-05T17:24:55.386Z,12.75
2023-03-05T17:26:56.801Z,13.07
2023-03-05T17:29:01.799Z,12.50
2023-03-05T17:31:03.411Z,13.73
2023-03-05T17:33:06.164Z,14.57
2023-03-05T17:35:16.336Z,14.38
2023-03-05T17:37:17.965Z,14.32
2023-03-05T17:39:19.443Z,13.60
2023-03-05T17:41:21.748Z,13.88
2023-03-05T17:43:23.401Z,18.13
2023-03-05T17:45:25.658Z,15.20
2023-03-05T17:47:27.168Z,17.23
2023-03-05T17:49:28.695Z,14.98
2023-03-05T17:51:30.080Z,13.75
2023-03-05T17:53:31.586Z,14.98
2023-03-05T17:55:33.806Z,14.43
2023-03-05T17:57:37.150Z,14.05
2023-03-05T17:59:38.623Z,14.43
2023-03-05T18:01:40.121Z,14.07
2023-03-05T18:03:41.503Z,14.20
2023-03-05T18:05:42.982Z,14.30
2023-03-05T18:07:44.561Z,14.50
2023-03-05T18:09:45.956Z,15.48
2023-03-05T18:11:47.550Z,16.20
2023-03-05T18:13:49.126Z,15.52
2023-03-05T18:15:50.683Z,15.75
2023-03-05T18:17:52.704Z,14.73
2023-03-05T18:19:54.226Z,14.27
2023-03-05T18:21:55.630Z,12.50
2023-03-05T18:23:57.414Z,12.35
2023-03-05T18:25:58.916Z,13.05
2023-03-05T18:28:01.976Z,13.57
2023-03-05T18:30:03.720Z,22.10
2023-03-05T18:32:05.488Z,34.13
2023-03-05T18:34:06.970Z,22.02
2023-03-05T18:36:08.645Z,52.97
2023-03-05T18:38:10.156Z,70.20
2023-03-05T18:40:19.395Z,19.33
2023-03-05T18:42:21.034Z,65.63
2023-03-05T18:44:22.780Z,22.20
2023-03-05T18:46:24.664Z,24.10
2023-03-05T18:48:26.317Z,42.17
2023-03-05T18:50:29.070Z,63.80
2023-03-05T18:52:30.465Z,37.38
2023-03-05T18:54:31.940Z,69.63
2023-03-05T18:56:34.074Z,43.75
2023-03-05T18:58:36.229Z,45.95
2023-03-05T19:00:37.786Z,46.70
2023-03-05T19:02:39.338Z,37.10
2023-03-05T19:04:40.934Z,29.85
2023-03-05T19:06:42.565Z,43.90
2023-03-05T19:08:44.766Z,31.80
2023-03-05T19:10:47.159Z,21.92
2023-03-05T19:12:50.013Z,30.23
2023-03-05T19:14:51.508Z,41.60
2023-03-05T19:16:52.892Z,26.50
2023-03-05T19:19:01.332Z,34.08
2023-03-05T19:21:02.910Z,56.47
2023-03-05T19:23:04.492Z,57.28
2023-03-05T19:25:06.595Z,128.63
2023-03-05T19:27:08.075Z,65.97
2023-03-05T19:29:10.153Z,40.22
2023-03-05T19:31:14.232Z,39.40
2023-03-05T19:33:15.788Z,26.05
2023-03-05T19:35:18.136Z,44.67
2023-03-05T19:37:19.704Z,40.33
2023-03-05T19:39:21.282Z,49.13
2023-03-05T19:41:23.180Z,66.03
2023-03-05T19:43:24.679Z,201.00
2023-03-05T19:45:26.313Z,112.18
2023-03-05T19:47:27.811Z,36.97
2023-03-05T19:49:29.336Z,67.25
2023-03-05T19:51:30.818Z,96.55
2023-03-05T19:53:32.211Z,69.38
2023-03-05T19:55:33.761Z,85.18
2023-03-05T19:57:35.346Z,70.57
2023-03-05T19:59:36.765Z,55.65
2023-03-05T20:01:38.313Z,68.45
2023-03-05T20:03:40.344Z,69.65
2023-03-05T20:05:41.749Z,43.92
2023-03-05T20:07:43.388Z,56.95
2023-03-05T20:09:44.896Z,33.65
2023-03-05T20:11:47.079Z,34.17
2023-03-05T20:13:49.079Z,38.60
2023-03-05T20:15:50.587Z,29.75
2023-03-05T20:17:53.062Z,36.15
2023-03-05T20:19:54.543Z,56.35
2023-03-05T20:21:56.125Z,30.63
2023-03-05T20:24:01.813Z,39.97
2023-03-05T20:26:04.573Z,72.75
2023-03-05T20:28:06.157Z,126.60
2023-03-05T20:30:08.985Z,71.85
2023-03-05T20:32:10.582Z,81.28
2023-03-05T20:34:14.696Z,171.40
2023-03-05T20:36:16.632Z,186.60
2023-03-05T20:38:28.785Z,37.22
2023-03-05T20:40:30.342Z,53.47
2023-03-05T20:42:31.733Z,50.88
2023-03-05T20:44:33.213Z,54.90
2023-03-05T20:46:37.686Z,69.85
2023-03-05T20:48:39.105Z,115.03
2023-03-05T20:50:40.940Z,122.00
2023-03-05T20:52:42.527Z,52.58
2023-03-05T20:54:43.986Z,73.53
2023-03-05T20:56:45.624Z,56.22
2023-03-05T20:58:47.125Z,49.17
2023-03-05T21:00:48.547Z,51.70
2023-03-05T21:02:51.039Z,47.10
2023-03-05T21:04:52.984Z,38.05
2023-03-05T21:06:54.401Z,29.27
2023-03-05T21:08:56.299Z,47.15
2023-03-05T21:10:58.844Z,63.53
2023-03-05T21:13:00.953Z,43.20
2023-03-05T21:15:02.638Z,59.90
2023-03-05T21:17:04.986Z,115.85
2023-03-05T21:19:06.369Z,38.25
2023-03-05T21:21:08.664Z,31.13
2023-03-05T21:23:10.208Z,128.25
2023-03-05T21:25:16.483Z,37.63
2023-03-05T21:27:17.995Z,37.40
2023-03-05T21:29:19.507Z,44.85
2023-03-05T21:31:22.894Z,33.25
2023-03-05T21:35:28.005Z,32.13
2023-03-05T21:37:29.418Z,50.72
2023-03-05T21:39:30.940Z,56.58
2023-03-05T21:41:32.422Z,44.67
2023-03-05T21:43:34.129Z,31.95
2023-03-05T21:45:35.733Z,30.23
2023-03-05T21:47:37.267Z,31.23
2023-03-05T21:49:38.703Z,39.50
2023-03-05T21:51:40.219Z,31.38
2023-03-05T21:53:42.142Z,39.53
2023-03-05T21:55:43.784Z,53.53
2023-03-05T21:57:45.997Z,45.45
2023-03-05T21:59:47.560Z,40.35
2023-03-05T22:01:50.361Z,39.63
2023-03-05T22:03:53.650Z,54.35
2023-03-05T22:05:56.082Z,53.45
2023-03-05T22:07:57.598Z,37.75
2023-03-05T22:09:59.474Z,28.15
2023-03-05T22:12:00.979Z,27.13
2023-03-05T22:14:02.389Z,37.25
2023-03-05T22:16:04.298Z,34.63
2023-03-05T22:18:05.858Z,29.17
2023-03-05T22:20:07.675Z,36.40
2023-03-05T22:22:09.097Z,28.38
2023-03-05T22:24:10.677Z,53.05
2023-03-05T22:26:12.122Z,30.58
2023-03-05T22:28:13.622Z,44.92
2023-03-05T22:30:15.108Z,42.92
2023-03-05T22:32:16.539Z,30.15
2023-03-05T22:34:17.989Z,26.40
2023-03-05T22:36:19.824Z,24.92
2023-03-05T22:38:22.165Z,24.10
2023-03-05T22:40:23.728Z,24.45
2023-03-05T22:42:25.196Z,23.95
2023-03-05T22:44:26.632Z,25.15
2023-03-05T22:46:28.215Z,27.77
2023-03-05T22:48:29.667Z,25.35
2023-03-05T22:50:31.255Z,25.90
2023-03-05T22:52:33.196Z,28.67
2023-03-05T22:54:34.807Z,24.05
2023-03-05T22:56:36.479Z,25.77
2023-03-05T22:58:38.501Z,23.52
2023-03-05T23:00:40.368Z,27.73
2023-03-05T23:02:42.509Z,24.30
2023-03-05T23:04:46.315Z,34.80
2023-03-05T23:06:47.870Z,25.17
2023-03-05T23:08:49.286Z,26.35
2023-03-05T23:10:51.026Z,24.48
2023-03-05T23:12:53.695Z,25.75
2023-03-05T23:14:55.333Z,24.83
2023-03-05T23:16:56.866Z,23.27
2023-03-05T23:18:58.390Z,24.73
2023-03-05T23:20:59.779Z,26.55
2023-03-05T23:23:01.433Z,26.25
2023-03-05T23:25:03.088Z,25.52
2023-03-05T23:27:06.469Z,26.75
2023-03-05T23:29:08.001Z,26.23
2023-03-05T23:31:09.414Z,24.45
2023-03-05T23:33:19.237Z,25.85
2023-03-05T23:35:26.969Z,26.52
2023-03-05T23:37:28.471Z,26.00
2023-03-05T23:39:29.868Z,25.35
2023-03-05T23:41:31.377Z,25.40
2023-03-05T23:43:32.784Z,26.10
2023-03-05T23:45:34.351Z,38.95
2023-03-05T23:47:36.233Z,28.80
2023-03-05T23:49:37.769Z,27.88
2023-03-05T23:51:39.184Z,30.17
2023-03-05T23:53:40.686Z,30.10
2023-03-05T23:55:44.457Z,29.23
2023-03-05T23:57:46.911Z,29.63
2023-03-05T23:59:48.447Z,29.55
